TLV weather

Ben Gurion International Airport
Tel Aviv, Central District, Israel

Public forecast

Using degrees Celsius for public forecast. Weather courtesy of forecast.io.

Current aviation weather report (METAR) for Ben Gurion International Airport

Retrieved 2020/02/26 19:20 UTC (38 minutes ago):

LLBG 261920Z VRB01KT CAVOK 13/11 Q1022 NOSIG

Aviation forecast (TAF) for Ben Gurion International Airport

Retrieved 2020/02/26 18:09 UTC (2 hours ago):

TAF TAF LLBG 261703Z 2618/2718 14005KT CAVOK BECMG 2707/2709 32008KT TX17/2712Z TN09/2704Z